sensor_id;sensor_type;location;lat;lon;timestamp;P1;durP1;ratioP1;P2;durP2;ratioP2
20411;SDS011;10365;52.578;8.138;2022-08-21T00:01:24;8.23;;;4.30;;
20411;SDS011;10365;52.578;8.138;2022-08-21T00:03:49;7.07;;;4.07;;
20411;SDS011;10365;52.578;8.138;2022-08-21T00:06:15;12.05;;;5.13;;
20411;SDS011;10365;52.578;8.138;2022-08-21T00:08:41;10.00;;;5.25;;
20411;SDS011;10365;52.578;8.138;2022-08-21T00:11:07;10.13;;;5.25;;
20411;SDS011;10365;52.578;8.138;2022-08-21T00:13:32;9.77;;;5.57;;
20411;SDS011;10365;52.578;8.138;2022-08-21T00:15:58;13.95;;;4.90;;
20411;SDS011;10365;52.578;8.138;2022-08-21T00:18:24;12.75;;;4.72;;
20411;SDS011;10365;52.578;8.138;2022-08-21T00:20:49;9.40;;;4.70;;
20411;SDS011;10365;52.578;8.138;2022-08-21T00:23:15;14.48;;;4.72;;
20411;SDS011;10365;52.578;8.138;2022-08-21T00:25:41;6.65;;;3.58;;
20411;SDS011;10365;52.578;8.138;2022-08-21T00:28:07;6.88;;;3.50;;
20411;SDS011;10365;52.578;8.138;2022-08-21T00:30:32;8.82;;;4.22;;
20411;SDS011;10365;52.578;8.138;2022-08-21T00:32:58;11.23;;;3.75;;
20411;SDS011;10365;52.578;8.138;2022-08-21T00:35:26;7.57;;;3.88;;
20411;SDS011;10365;52.578;8.138;2022-08-21T00:37:51;4.18;;;3.47;;
20411;SDS011;10365;52.578;8.138;2022-08-21T00:40:19;5.78;;;3.28;;
20411;SDS011;10365;52.578;8.138;2022-08-21T00:42:45;8.00;;;3.47;;
20411;SDS011;10365;52.578;8.138;2022-08-21T00:45:11;4.47;;;3.20;;
20411;SDS011;10365;52.578;8.138;2022-08-21T00:47:37;9.00;;;3.60;;
20411;SDS011;10365;52.578;8.138;2022-08-21T00:50:04;11.98;;;3.90;;
20411;SDS011;10365;52.578;8.138;2022-08-21T00:52:30;6.13;;;2.78;;
20411;SDS011;10365;52.578;8.138;2022-08-21T00:54:56;7.50;;;3.72;;
20411;SDS011;10365;52.578;8.138;2022-08-21T00:57:29;5.93;;;3.40;;
20411;SDS011;10365;52.578;8.138;2022-08-21T00:59:57;8.82;;;3.47;;
20411;SDS011;10365;52.578;8.138;2022-08-21T01:02:23;11.05;;;3.88;;
20411;SDS011;10365;52.578;8.138;2022-08-21T01:04:49;8.60;;;4.28;;
20411;SDS011;10365;52.578;8.138;2022-08-21T01:07:15;7.60;;;3.92;;
20411;SDS011;10365;52.578;8.138;2022-08-21T01:09:40;9.65;;;4.25;;
20411;SDS011;10365;52.578;8.138;2022-08-21T01:12:06;6.20;;;3.72;;
20411;SDS011;10365;52.578;8.138;2022-08-21T01:14:32;9.38;;;3.85;;
20411;SDS011;10365;52.578;8.138;2022-08-21T01:16:57;8.48;;;4.28;;
20411;SDS011;10365;52.578;8.138;2022-08-21T01:19:24;8.48;;;4.40;;
20411;SDS011;10365;52.578;8.138;2022-08-21T01:21:51;6.53;;;4.35;;
20411;SDS011;10365;52.578;8.138;2022-08-21T01:24:16;5.53;;;3.97;;
20411;SDS011;10365;52.578;8.138;2022-08-21T01:26:42;8.35;;;4.53;;
20411;SDS011;10365;52.578;8.138;2022-08-21T01:31:39;8.45;;;4.20;;
20411;SDS011;10365;52.578;8.138;2022-08-21T01:34:05;13.32;;;4.32;;
20411;SDS011;10365;52.578;8.138;2022-08-21T01:36:30;8.63;;;4.18;;
20411;SDS011;10365;52.578;8.138;2022-08-21T01:38:56;13.63;;;5.50;;
20411;SDS011;10365;52.578;8.138;2022-08-21T01:41:22;8.35;;;4.75;;
20411;SDS011;10365;52.578;8.138;2022-08-21T01:43:47;8.82;;;4.47;;
20411;SDS011;10365;52.578;8.138;2022-08-21T01:46:13;10.93;;;4.82;;
20411;SDS011;10365;52.578;8.138;2022-08-21T01:48:39;8.57;;;4.68;;
20411;SDS011;10365;52.578;8.138;2022-08-21T01:51:05;12.27;;;5.15;;
20411;SDS011;10365;52.578;8.138;2022-08-21T01:53:30;7.68;;;4.55;;
20411;SDS011;10365;52.578;8.138;2022-08-21T01:55:56;9.02;;;5.03;;
20411;SDS011;10365;52.578;8.138;2022-08-21T01:58:21;8.88;;;4.72;;
20411;SDS011;10365;52.578;8.138;2022-08-21T02:00:46;11.77;;;5.10;;
20411;SDS011;10365;52.578;8.138;2022-08-21T02:03:18;7.10;;;5.03;;
20411;SDS011;10365;52.578;8.138;2022-08-21T02:05:44;8.52;;;5.00;;
20411;SDS011;10365;52.578;8.138;2022-08-21T02:08:10;9.52;;;4.07;;
20411;SDS011;10365;52.578;8.138;2022-08-21T02:10:36;7.43;;;4.15;;
20411;SDS011;10365;52.578;8.138;2022-08-21T02:13:01;10.77;;;4.97;;
20411;SDS011;10365;52.578;8.138;2022-08-21T02:15:27;6.32;;;4.50;;
20411;SDS011;10365;52.578;8.138;2022-08-21T02:17:54;12.80;;;4.97;;
20411;SDS011;10365;52.578;8.138;2022-08-21T02:20:27;12.10;;;4.82;;
20411;SDS011;10365;52.578;8.138;2022-08-21T02:22:53;13.82;;;4.80;;
20411;SDS011;10365;52.578;8.138;2022-08-21T02:25:19;8.70;;;4.95;;
20411;SDS011;10365;52.578;8.138;2022-08-21T02:27:45;10.60;;;4.85;;
20411;SDS011;10365;52.578;8.138;2022-08-21T02:30:34;8.98;;;4.78;;
20411;SDS011;10365;52.578;8.138;2022-08-21T02:32:58;9.43;;;4.93;;
20411;SDS011;10365;52.578;8.138;2022-08-21T02:35:25;11.25;;;4.80;;
20411;SDS011;10365;52.578;8.138;2022-08-21T02:40:17;7.03;;;4.55;;
20411;SDS011;10365;52.578;8.138;2022-08-21T02:42:44;9.23;;;4.70;;
20411;SDS011;10365;52.578;8.138;2022-08-21T02:45:10;6.95;;;5.22;;
20411;SDS011;10365;52.578;8.138;2022-08-21T02:47:37;14.93;;;5.50;;
20411;SDS011;10365;52.578;8.138;2022-08-21T02:50:03;10.65;;;5.30;;
20411;SDS011;10365;52.578;8.138;2022-08-21T02:52:29;9.38;;;4.40;;
20411;SDS011;10365;52.578;8.138;2022-08-21T02:54:54;13.10;;;5.05;;
20411;SDS011;10365;52.578;8.138;2022-08-21T02:57:20;6.72;;;3.95;;
20411;SDS011;10365;52.578;8.138;2022-08-21T02:59:45;11.55;;;3.92;;
20411;SDS011;10365;52.578;8.138;2022-08-21T03:02:12;8.30;;;4.70;;
20411;SDS011;10365;52.578;8.138;2022-08-21T03:04:37;11.10;;;4.75;;
20411;SDS011;10365;52.578;8.138;2022-08-21T03:07:03;15.13;;;4.47;;
20411;SDS011;10365;52.578;8.138;2022-08-21T03:09:28;10.32;;;5.10;;
20411;SDS011;10365;52.578;8.138;2022-08-21T03:11:53;13.38;;;5.35;;
20411;SDS011;10365;52.578;8.138;2022-08-21T03:14:19;16.05;;;6.03;;
20411;SDS011;10365;52.578;8.138;2022-08-21T03:16:44;13.55;;;5.85;;
20411;SDS011;10365;52.578;8.138;2022-08-21T03:19:10;14.80;;;5.95;;
20411;SDS011;10365;52.578;8.138;2022-08-21T03:21:35;13.32;;;5.82;;
20411;SDS011;10365;52.578;8.138;2022-08-21T03:24:01;13.60;;;5.75;;
20411;SDS011;10365;52.578;8.138;2022-08-21T03:26:26;9.90;;;6.10;;
20411;SDS011;10365;52.578;8.138;2022-08-21T03:28:52;10.93;;;6.43;;
20411;SDS011;10365;52.578;8.138;2022-08-21T03:31:18;11.02;;;5.72;;
20411;SDS011;10365;52.578;8.138;2022-08-21T03:33:43;15.57;;;6.15;;
20411;SDS011;10365;52.578;8.138;2022-08-21T03:36:09;8.57;;;5.70;;
20411;SDS011;10365;52.578;8.138;2022-08-21T03:38:35;12.90;;;6.05;;
20411;SDS011;10365;52.578;8.138;2022-08-21T03:41:00;17.08;;;7.72;;
20411;SDS011;10365;52.578;8.138;2022-08-21T03:43:26;20.42;;;7.63;;
20411;SDS011;10365;52.578;8.138;2022-08-21T03:45:51;16.77;;;7.70;;
20411;SDS011;10365;52.578;8.138;2022-08-21T03:48:17;17.92;;;7.60;;
20411;SDS011;10365;52.578;8.138;2022-08-21T03:50:43;18.33;;;8.57;;
20411;SDS011;10365;52.578;8.138;2022-08-21T03:53:12;14.45;;;7.47;;
20411;SDS011;10365;52.578;8.138;2022-08-21T03:55:38;14.40;;;8.13;;
20411;SDS011;10365;52.578;8.138;2022-08-21T03:58:04;16.73;;;7.97;;
20411;SDS011;10365;52.578;8.138;2022-08-21T04:00:29;12.15;;;8.32;;
20411;SDS011;10365;52.578;8.138;2022-08-21T04:02:54;14.40;;;8.52;;
20411;SDS011;10365;52.578;8.138;2022-08-21T04:05:20;11.65;;;7.95;;
20411;SDS011;10365;52.578;8.138;2022-08-21T04:07:58;22.33;;;9.30;;
20411;SDS011;10365;52.578;8.138;2022-08-21T04:10:25;18.70;;;9.43;;
20411;SDS011;10365;52.578;8.138;2022-08-21T04:12:51;16.08;;;9.10;;
20411;SDS011;10365;52.578;8.138;2022-08-21T04:15:17;16.08;;;10.10;;
20411;SDS011;10365;52.578;8.138;2022-08-21T04:17:42;17.08;;;9.25;;
20411;SDS011;10365;52.578;8.138;2022-08-21T04:20:08;27.13;;;10.82;;
20411;SDS011;10365;52.578;8.138;2022-08-21T04:22:33;17.17;;;9.60;;
20411;SDS011;10365;52.578;8.138;2022-08-21T04:25:00;13.90;;;9.48;;
20411;SDS011;10365;52.578;8.138;2022-08-21T04:27:25;25.83;;;10.80;;
20411;SDS011;10365;52.578;8.138;2022-08-21T04:29:51;19.17;;;11.13;;
20411;SDS011;10365;52.578;8.138;2022-08-21T04:32:23;19.58;;;9.73;;
20411;SDS011;10365;52.578;8.138;2022-08-21T04:34:48;24.88;;;10.45;;
20411;SDS011;10365;52.578;8.138;2022-08-21T04:37:14;22.23;;;9.45;;
20411;SDS011;10365;52.578;8.138;2022-08-21T04:39:41;19.75;;;9.45;;
20411;SDS011;10365;52.578;8.138;2022-08-21T04:42:06;17.13;;;10.38;;
20411;SDS011;10365;52.578;8.138;2022-08-21T04:44:32;22.88;;;10.85;;
20411;SDS011;10365;52.578;8.138;2022-08-21T04:46:58;16.63;;;10.60;;
20411;SDS011;10365;52.578;8.138;2022-08-21T04:49:23;17.20;;;10.70;;
20411;SDS011;10365;52.578;8.138;2022-08-21T04:52:01;21.33;;;10.65;;
20411;SDS011;10365;52.578;8.138;2022-08-21T04:54:26;25.65;;;10.88;;
20411;SDS011;10365;52.578;8.138;2022-08-21T04:56:53;18.35;;;10.50;;
20411;SDS011;10365;52.578;8.138;2022-08-21T04:59:34;17.67;;;11.23;;
20411;SDS011;10365;52.578;8.138;2022-08-21T05:02:00;20.92;;;11.63;;
20411;SDS011;10365;52.578;8.138;2022-08-21T05:04:28;18.60;;;11.15;;
20411;SDS011;10365;52.578;8.138;2022-08-21T05:06:56;18.60;;;10.93;;
20411;SDS011;10365;52.578;8.138;2022-08-21T05:09:22;21.92;;;12.20;;
20411;SDS011;10365;52.578;8.138;2022-08-21T05:11:48;13.93;;;10.55;;
20411;SDS011;10365;52.578;8.138;2022-08-21T05:14:14;19.48;;;11.25;;
20411;SDS011;10365;52.578;8.138;2022-08-21T05:16:40;20.85;;;11.98;;
20411;SDS011;10365;52.578;8.138;2022-08-21T05:19:07;21.75;;;10.25;;
20411;SDS011;10365;52.578;8.138;2022-08-21T05:21:33;19.95;;;9.15;;
20411;SDS011;10365;52.578;8.138;2022-08-21T05:23:58;16.27;;;7.28;;
20411;SDS011;10365;52.578;8.138;2022-08-21T05:26:24;10.15;;;6.30;;
20411;SDS011;10365;52.578;8.138;2022-08-21T05:28:49;11.55;;;5.80;;
20411;SDS011;10365;52.578;8.138;2022-08-21T05:31:14;14.15;;;5.00;;
20411;SDS011;10365;52.578;8.138;2022-08-21T05:33:40;8.85;;;4.03;;
20411;SDS011;10365;52.578;8.138;2022-08-21T05:36:05;9.57;;;4.50;;
20411;SDS011;10365;52.578;8.138;2022-08-21T05:38:31;14.35;;;4.35;;
20411;SDS011;10365;52.578;8.138;2022-08-21T05:40:56;8.13;;;4.78;;
20411;SDS011;10365;52.578;8.138;2022-08-21T05:43:21;13.57;;;5.28;;
20411;SDS011;10365;52.578;8.138;2022-08-21T05:45:47;9.48;;;5.50;;
20411;SDS011;10365;52.578;8.138;2022-08-21T05:48:14;9.85;;;5.60;;
20411;SDS011;10365;52.578;8.138;2022-08-21T05:50:40;10.93;;;5.53;;
20411;SDS011;10365;52.578;8.138;2022-08-21T05:53:06;10.80;;;6.72;;
20411;SDS011;10365;52.578;8.138;2022-08-21T05:55:31;19.45;;;7.18;;
20411;SDS011;10365;52.578;8.138;2022-08-21T05:57:56;16.38;;;8.68;;
20411;SDS011;10365;52.578;8.138;2022-08-21T06:00:22;12.48;;;7.50;;
20411;SDS011;10365;52.578;8.138;2022-08-21T06:02:48;14.15;;;8.38;;
20411;SDS011;10365;52.578;8.138;2022-08-21T06:05:15;16.98;;;8.23;;
20411;SDS011;10365;52.578;8.138;2022-08-21T06:07:40;16.58;;;8.40;;
20411;SDS011;10365;52.578;8.138;2022-08-21T06:10:07;14.35;;;8.18;;
20411;SDS011;10365;52.578;8.138;2022-08-21T06:12:33;17.13;;;8.73;;
20411;SDS011;10365;52.578;8.138;2022-08-21T06:14:58;12.98;;;7.78;;
20411;SDS011;10365;52.578;8.138;2022-08-21T06:17:24;15.75;;;8.05;;
20411;SDS011;10365;52.578;8.138;2022-08-21T06:19:53;18.15;;;8.75;;
20411;SDS011;10365;52.578;8.138;2022-08-21T06:22:19;16.10;;;8.00;;
20411;SDS011;10365;52.578;8.138;2022-08-21T06:24:45;13.57;;;7.57;;
20411;SDS011;10365;52.578;8.138;2022-08-21T06:27:10;12.32;;;7.97;;
20411;SDS011;10365;52.578;8.138;2022-08-21T06:29:37;14.43;;;8.07;;
20411;SDS011;10365;52.578;8.138;2022-08-21T06:32:03;12.63;;;8.05;;
20411;SDS011;10365;52.578;8.138;2022-08-21T06:34:29;16.30;;;8.23;;
20411;SDS011;10365;52.578;8.138;2022-08-21T06:36:54;12.30;;;7.82;;
20411;SDS011;10365;52.578;8.138;2022-08-21T06:39:19;16.10;;;7.72;;
20411;SDS011;10365;52.578;8.138;2022-08-21T06:41:45;11.90;;;6.97;;
20411;SDS011;10365;52.578;8.138;2022-08-21T06:44:10;10.43;;;6.63;;
20411;SDS011;10365;52.578;8.138;2022-08-21T06:46:36;11.25;;;6.35;;
20411;SDS011;10365;52.578;8.138;2022-08-21T06:49:01;15.32;;;7.57;;
20411;SDS011;10365;52.578;8.138;2022-08-21T06:51:27;14.27;;;6.45;;
20411;SDS011;10365;52.578;8.138;2022-08-21T06:53:53;14.68;;;6.25;;
20411;SDS011;10365;52.578;8.138;2022-08-21T06:56:19;12.57;;;6.30;;
20411;SDS011;10365;52.578;8.138;2022-08-21T06:58:44;11.82;;;5.93;;
20411;SDS011;10365;52.578;8.138;2022-08-21T07:01:10;11.02;;;6.45;;
20411;SDS011;10365;52.578;8.138;2022-08-21T07:03:37;11.60;;;6.20;;
20411;SDS011;10365;52.578;8.138;2022-08-21T07:06:04;14.02;;;4.10;;
20411;SDS011;10365;52.578;8.138;2022-08-21T07:08:29;7.72;;;4.65;;
20411;SDS011;10365;52.578;8.138;2022-08-21T07:11:10;11.35;;;3.80;;
20411;SDS011;10365;52.578;8.138;2022-08-21T07:13:36;11.80;;;3.90;;
20411;SDS011;10365;52.578;8.138;2022-08-21T07:16:02;7.72;;;3.83;;
20411;SDS011;10365;52.578;8.138;2022-08-21T07:18:27;8.98;;;3.50;;
20411;SDS011;10365;52.578;8.138;2022-08-21T07:20:53;8.20;;;3.45;;
20411;SDS011;10365;52.578;8.138;2022-08-21T07:23:24;6.00;;;3.20;;
20411;SDS011;10365;52.578;8.138;2022-08-21T07:25:51;9.40;;;3.30;;
20411;SDS011;10365;52.578;8.138;2022-08-21T07:28:16;7.43;;;2.97;;
20411;SDS011;10365;52.578;8.138;2022-08-21T07:30:42;6.22;;;2.60;;
20411;SDS011;10365;52.578;8.138;2022-08-21T07:33:07;6.43;;;2.80;;
20411;SDS011;10365;52.578;8.138;2022-08-21T07:35:33;7.93;;;3.10;;
20411;SDS011;10365;52.578;8.138;2022-08-21T07:37:58;5.00;;;2.65;;
20411;SDS011;10365;52.578;8.138;2022-08-21T07:40:24;7.85;;;2.92;;
20411;SDS011;10365;52.578;8.138;2022-08-21T07:42:49;5.43;;;2.47;;
20411;SDS011;10365;52.578;8.138;2022-08-21T07:45:17;6.75;;;2.60;;
20411;SDS011;10365;52.578;8.138;2022-08-21T07:47:43;6.60;;;2.67;;
20411;SDS011;10365;52.578;8.138;2022-08-21T07:50:09;10.68;;;2.80;;
20411;SDS011;10365;52.578;8.138;2022-08-21T07:52:36;6.50;;;3.10;;
20411;SDS011;10365;52.578;8.138;2022-08-21T07:55:02;8.48;;;2.58;;
20411;SDS011;10365;52.578;8.138;2022-08-21T07:57:27;6.53;;;2.90;;
20411;SDS011;10365;52.578;8.138;2022-08-21T07:59:52;5.00;;;2.03;;
20411;SDS011;10365;52.578;8.138;2022-08-21T08:02:24;7.88;;;1.92;;
20411;SDS011;10365;52.578;8.138;2022-08-21T08:04:50;7.30;;;1.95;;
20411;SDS011;10365;52.578;8.138;2022-08-21T08:07:15;6.63;;;1.95;;
20411;SDS011;10365;52.578;8.138;2022-08-21T08:09:41;5.95;;;1.92;;
20411;SDS011;10365;52.578;8.138;2022-08-21T08:12:06;5.32;;;1.80;;
20411;SDS011;10365;52.578;8.138;2022-08-21T08:14:32;6.50;;;1.77;;
20411;SDS011;10365;52.578;8.138;2022-08-21T08:16:58;4.53;;;1.90;;
20411;SDS011;10365;52.578;8.138;2022-08-21T08:19:23;4.90;;;1.90;;
20411;SDS011;10365;52.578;8.138;2022-08-21T08:21:49;6.18;;;1.60;;
20411;SDS011;10365;52.578;8.138;2022-08-21T08:24:14;7.28;;;1.70;;
20411;SDS011;10365;52.578;8.138;2022-08-21T08:26:40;5.05;;;1.40;;
20411;SDS011;10365;52.578;8.138;2022-08-21T08:29:05;9.32;;;1.90;;
20411;SDS011;10365;52.578;8.138;2022-08-21T08:31:30;5.05;;;1.80;;
20411;SDS011;10365;52.578;8.138;2022-08-21T08:33:56;5.55;;;1.50;;
20411;SDS011;10365;52.578;8.138;2022-08-21T08:36:21;7.97;;;1.88;;
20411;SDS011;10365;52.578;8.138;2022-08-21T08:38:57;8.82;;;1.80;;
20411;SDS011;10365;52.578;8.138;2022-08-21T08:41:23;6.07;;;1.85;;
20411;SDS011;10365;52.578;8.138;2022-08-21T08:43:50;7.32;;;2.20;;
20411;SDS011;10365;52.578;8.138;2022-08-21T08:46:18;6.38;;;1.70;;
20411;SDS011;10365;52.578;8.138;2022-08-21T08:54:07;8.15;;;2.10;;
20411;SDS011;10365;52.578;8.138;2022-08-21T08:56:33;7.32;;;2.00;;
20411;SDS011;10365;52.578;8.138;2022-08-21T08:59:22;5.82;;;1.92;;
20411;SDS011;10365;52.578;8.138;2022-08-21T09:01:45;5.72;;;2.45;;
20411;SDS011;10365;52.578;8.138;2022-08-21T09:04:11;6.13;;;1.98;;
20411;SDS011;10365;52.578;8.138;2022-08-21T09:09:25;4.35;;;2.15;;
20411;SDS011;10365;52.578;8.138;2022-08-21T09:11:57;5.30;;;1.90;;
20411;SDS011;10365;52.578;8.138;2022-08-21T09:22:39;8.70;;;2.72;;
20411;SDS011;10365;52.578;8.138;2022-08-21T09:27:36;6.10;;;2.20;;
20411;SDS011;10365;52.578;8.138;2022-08-21T09:30:03;10.13;;;2.42;;
20411;SDS011;10365;52.578;8.138;2022-08-21T09:32:30;8.63;;;2.50;;
20411;SDS011;10365;52.578;8.138;2022-08-21T09:37:24;6.78;;;2.78;;
20411;SDS011;10365;52.578;8.138;2022-08-21T09:39:50;8.15;;;2.75;;
20411;SDS011;10365;52.578;8.138;2022-08-21T09:42:24;6.45;;;1.95;;
20411;SDS011;10365;52.578;8.138;2022-08-21T09:45:05;8.55;;;2.55;;
20411;SDS011;10365;52.578;8.138;2022-08-21T09:47:32;6.93;;;2.25;;
20411;SDS011;10365;52.578;8.138;2022-08-21T09:50:06;10.15;;;2.38;;
20411;SDS011;10365;52.578;8.138;2022-08-21T09:52:32;5.63;;;2.20;;
20411;SDS011;10365;52.578;8.138;2022-08-21T09:54:57;7.72;;;2.10;;
20411;SDS011;10365;52.578;8.138;2022-08-21T09:57:24;8.30;;;2.30;;
20411;SDS011;10365;52.578;8.138;2022-08-21T10:02:44;8.88;;;2.72;;
20411;SDS011;10365;52.578;8.138;2022-08-21T10:05:20;7.88;;;2.63;;
20411;SDS011;10365;52.578;8.138;2022-08-21T10:07:47;10.07;;;2.28;;
20411;SDS011;10365;52.578;8.138;2022-08-21T10:25:44;7.15;;;2.38;;
20411;SDS011;10365;52.578;8.138;2022-08-21T10:30:59;9.95;;;2.40;;
20411;SDS011;10365;52.578;8.138;2022-08-21T10:43:44;11.73;;;3.00;;
20411;SDS011;10365;52.578;8.138;2022-08-21T10:46:18;7.35;;;2.67;;
20411;SDS011;10365;52.578;8.138;2022-08-21T10:48:58;7.40;;;2.30;;
20411;SDS011;10365;52.578;8.138;2022-08-21T10:51:35;5.68;;;2.00;;
20411;SDS011;10365;52.578;8.138;2022-08-21T10:56:31;3.75;;;2.20;;
20411;SDS011;10365;52.578;8.138;2022-08-21T11:01:38;6.82;;;2.20;;
20411;SDS011;10365;52.578;8.138;2022-08-21T11:06:53;8.95;;;3.45;;
20411;SDS011;10365;52.578;8.138;2022-08-21T11:09:23;11.18;;;3.85;;
20411;SDS011;10365;52.578;8.138;2022-08-21T11:11:52;7.07;;;4.03;;
20411;SDS011;10365;52.578;8.138;2022-08-21T11:17:09;9.23;;;3.65;;
20411;SDS011;10365;52.578;8.138;2022-08-21T11:19:45;10.50;;;4.22;;
20411;SDS011;10365;52.578;8.138;2022-08-21T11:27:23;8.48;;;5.03;;
20411;SDS011;10365;52.578;8.138;2022-08-21T11:29:51;9.25;;;5.22;;
20411;SDS011;10365;52.578;8.138;2022-08-21T11:40:21;8.32;;;5.75;;
20411;SDS011;10365;52.578;8.138;2022-08-21T11:42:55;9.73;;;6.40;;
20411;SDS011;10365;52.578;8.138;2022-08-21T11:45:27;9.70;;;5.90;;
20411;SDS011;10365;52.578;8.138;2022-08-21T11:50:28;9.18;;;5.43;;
20411;SDS011;10365;52.578;8.138;2022-08-21T11:58:08;10.90;;;6.13;;
20411;SDS011;10365;52.578;8.138;2022-08-21T12:00:36;10.65;;;5.00;;
20411;SDS011;10365;52.578;8.138;2022-08-21T12:03:25;8.77;;;4.88;;
20411;SDS011;10365;52.578;8.138;2022-08-21T12:05:52;11.48;;;5.40;;
20411;SDS011;10365;52.578;8.138;2022-08-21T12:13:51;10.68;;;3.90;;
20411;SDS011;10365;52.578;8.138;2022-08-21T12:16:30;7.13;;;3.53;;
20411;SDS011;10365;52.578;8.138;2022-08-21T12:19:03;8.35;;;3.60;;
20411;SDS011;10365;52.578;8.138;2022-08-21T12:21:29;7.43;;;2.70;;
20411;SDS011;10365;52.578;8.138;2022-08-21T12:26:28;5.38;;;2.20;;
20411;SDS011;10365;52.578;8.138;2022-08-21T12:32:01;7.90;;;1.48;;
20411;SDS011;10365;52.578;8.138;2022-08-21T12:34:31;7.10;;;1.63;;
20411;SDS011;10365;52.578;8.138;2022-08-21T12:36:59;4.30;;;1.40;;
20411;SDS011;10365;52.578;8.138;2022-08-21T12:39:26;6.18;;;1.60;;
20411;SDS011;10365;52.578;8.138;2022-08-21T12:44:22;4.15;;;1.55;;
20411;SDS011;10365;52.578;8.138;2022-08-21T12:46:50;3.42;;;1.40;;
20411;SDS011;10365;52.578;8.138;2022-08-21T12:49:26;5.15;;;1.70;;
20411;SDS011;10365;52.578;8.138;2022-08-21T12:54:22;4.75;;;1.48;;
20411;SDS011;10365;52.578;8.138;2022-08-21T12:56:55;4.78;;;1.20;;
20411;SDS011;10365;52.578;8.138;2022-08-21T12:59:21;4.00;;;1.20;;
20411;SDS011;10365;52.578;8.138;2022-08-21T13:01:50;4.13;;;1.25;;
20411;SDS011;10365;52.578;8.138;2022-08-21T13:04:17;3.30;;;1.15;;
20411;SDS011;10365;52.578;8.138;2022-08-21T13:06:46;4.78;;;1.30;;
20411;SDS011;10365;52.578;8.138;2022-08-21T13:09:12;3.20;;;1.10;;
20411;SDS011;10365;52.578;8.138;2022-08-21T13:11:40;2.70;;;0.93;;
20411;SDS011;10365;52.578;8.138;2022-08-21T13:14:05;3.92;;;1.20;;
20411;SDS011;10365;52.578;8.138;2022-08-21T13:16:34;3.88;;;1.20;;
20411;SDS011;10365;52.578;8.138;2022-08-21T13:19:00;2.53;;;0.90;;
20411;SDS011;10365;52.578;8.138;2022-08-21T13:21:30;2.90;;;1.30;;
20411;SDS011;10365;52.578;8.138;2022-08-21T13:26:40;4.85;;;1.00;;
20411;SDS011;10365;52.578;8.138;2022-08-21T13:29:12;1.98;;;1.00;;
20411;SDS011;10365;52.578;8.138;2022-08-21T13:31:41;2.90;;;0.95;;
20411;SDS011;10365;52.578;8.138;2022-08-21T13:34:08;2.97;;;1.05;;
20411;SDS011;10365;52.578;8.138;2022-08-21T13:36:37;2.67;;;0.77;;
20411;SDS011;10365;52.578;8.138;2022-08-21T13:39:09;6.78;;;1.25;;
20411;SDS011;10365;52.578;8.138;2022-08-21T13:41:36;4.75;;;1.00;;
20411;SDS011;10365;52.578;8.138;2022-08-21T13:44:24;3.55;;;1.00;;
20411;SDS011;10365;52.578;8.138;2022-08-21T13:46:51;4.03;;;1.15;;
20411;SDS011;10365;52.578;8.138;2022-08-21T13:49:19;2.90;;;1.00;;
20411;SDS011;10365;52.578;8.138;2022-08-21T13:51:46;5.20;;;1.23;;
20411;SDS011;10365;52.578;8.138;2022-08-21T13:54:15;5.57;;;1.20;;
20411;SDS011;10365;52.578;8.138;2022-08-21T13:56:45;4.50;;;1.15;;
20411;SDS011;10365;52.578;8.138;2022-08-21T13:59:11;4.72;;;1.10;;
20411;SDS011;10365;52.578;8.138;2022-08-21T14:01:38;5.13;;;1.05;;
20411;SDS011;10365;52.578;8.138;2022-08-21T14:04:26;3.53;;;1.10;;
20411;SDS011;10365;52.578;8.138;2022-08-21T14:06:50;4.43;;;1.10;;
20411;SDS011;10365;52.578;8.138;2022-08-21T14:09:33;6.18;;;1.30;;
20411;SDS011;10365;52.578;8.138;2022-08-21T14:12:01;2.17;;;1.10;;
20411;SDS011;10365;52.578;8.138;2022-08-21T14:14:28;2.50;;;0.95;;
20411;SDS011;10365;52.578;8.138;2022-08-21T14:16:59;6.25;;;0.90;;
20411;SDS011;10365;52.578;8.138;2022-08-21T14:19:36;2.40;;;0.95;;
20411;SDS011;10365;52.578;8.138;2022-08-21T14:24:49;5.65;;;1.10;;
20411;SDS011;10365;52.578;8.138;2022-08-21T14:27:16;1.92;;;0.80;;
20411;SDS011;10365;52.578;8.138;2022-08-21T14:29:42;6.43;;;1.10;;
20411;SDS011;10365;52.578;8.138;2022-08-21T14:32:15;5.40;;;0.95;;
20411;SDS011;10365;52.578;8.138;2022-08-21T14:34:41;10.43;;;1.40;;
20411;SDS011;10365;52.578;8.138;2022-08-21T14:37:06;2.10;;;1.00;;
20411;SDS011;10365;52.578;8.138;2022-08-21T14:39:32;4.45;;;0.95;;
20411;SDS011;10365;52.578;8.138;2022-08-21T14:41:58;4.25;;;1.00;;
20411;SDS011;10365;52.578;8.138;2022-08-21T14:44:24;2.47;;;0.80;;
20411;SDS011;10365;52.578;8.138;2022-08-21T14:46:50;2.92;;;0.82;;
20411;SDS011;10365;52.578;8.138;2022-08-21T14:49:15;5.25;;;0.90;;
20411;SDS011;10365;52.578;8.138;2022-08-21T14:51:41;5.60;;;1.27;;
20411;SDS011;10365;52.578;8.138;2022-08-21T14:54:06;2.42;;;1.10;;
20411;SDS011;10365;52.578;8.138;2022-08-21T14:56:32;4.07;;;1.30;;
20411;SDS011;10365;52.578;8.138;2022-08-21T14:58:59;5.38;;;1.00;;
20411;SDS011;10365;52.578;8.138;2022-08-21T15:01:27;3.58;;;1.25;;
20411;SDS011;10365;52.578;8.138;2022-08-21T15:03:52;5.05;;;1.08;;
20411;SDS011;10365;52.578;8.138;2022-08-21T15:06:17;6.30;;;1.27;;
20411;SDS011;10365;52.578;8.138;2022-08-21T15:08:43;3.80;;;1.00;;
20411;SDS011;10365;52.578;8.138;2022-08-21T15:11:11;6.82;;;1.15;;
20411;SDS011;10365;52.578;8.138;2022-08-21T15:13:37;4.55;;;1.20;;
20411;SDS011;10365;52.578;8.138;2022-08-21T15:16:03;2.22;;;0.95;;
20411;SDS011;10365;52.578;8.138;2022-08-21T15:18:29;2.35;;;0.90;;
20411;SDS011;10365;52.578;8.138;2022-08-21T15:20:54;7.15;;;1.27;;
20411;SDS011;10365;52.578;8.138;2022-08-21T15:23:20;2.55;;;0.80;;
20411;SDS011;10365;52.578;8.138;2022-08-21T15:25:46;4.00;;;1.10;;
20411;SDS011;10365;52.578;8.138;2022-08-21T15:28:12;3.38;;;1.05;;
20411;SDS011;10365;52.578;8.138;2022-08-21T15:30:39;3.80;;;1.05;;
20411;SDS011;10365;52.578;8.138;2022-08-21T15:33:04;3.88;;;0.90;;
20411;SDS011;10365;52.578;8.138;2022-08-21T15:35:30;3.25;;;1.00;;
20411;SDS011;10365;52.578;8.138;2022-08-21T15:37:55;6.88;;;1.58;;
20411;SDS011;10365;52.578;8.138;2022-08-21T15:40:22;2.60;;;1.00;;
20411;SDS011;10365;52.578;8.138;2022-08-21T15:42:48;2.88;;;0.90;;
20411;SDS011;10365;52.578;8.138;2022-08-21T15:45:13;4.03;;;1.10;;
20411;SDS011;10365;52.578;8.138;2022-08-21T15:47:42;3.55;;;0.95;;
20411;SDS011;10365;52.578;8.138;2022-08-21T15:50:08;3.10;;;1.20;;
20411;SDS011;10365;52.578;8.138;2022-08-21T15:52:33;4.45;;;1.20;;
20411;SDS011;10365;52.578;8.138;2022-08-21T15:54:59;4.53;;;0.95;;
20411;SDS011;10365;52.578;8.138;2022-08-21T15:57:24;3.42;;;1.35;;
20411;SDS011;10365;52.578;8.138;2022-08-21T15:59:51;3.30;;;0.93;;
20411;SDS011;10365;52.578;8.138;2022-08-21T16:02:19;4.75;;;1.52;;
20411;SDS011;10365;52.578;8.138;2022-08-21T16:04:45;2.63;;;1.05;;
20411;SDS011;10365;52.578;8.138;2022-08-21T16:07:10;4.18;;;1.27;;
20411;SDS011;10365;52.578;8.138;2022-08-21T16:09:36;3.97;;;1.00;;
20411;SDS011;10365;52.578;8.138;2022-08-21T16:12:01;2.50;;;0.98;;
20411;SDS011;10365;52.578;8.138;2022-08-21T16:14:28;2.67;;;1.25;;
20411;SDS011;10365;52.578;8.138;2022-08-21T16:16:54;3.47;;;1.00;;
20411;SDS011;10365;52.578;8.138;2022-08-21T16:19:20;4.60;;;1.08;;
20411;SDS011;10365;52.578;8.138;2022-08-21T16:21:46;5.60;;;1.10;;
20411;SDS011;10365;52.578;8.138;2022-08-21T16:24:11;2.70;;;0.93;;
20411;SDS011;10365;52.578;8.138;2022-08-21T16:26:37;3.72;;;1.10;;
20411;SDS011;10365;52.578;8.138;2022-08-21T16:29:03;2.08;;;0.80;;
20411;SDS011;10365;52.578;8.138;2022-08-21T16:31:29;5.60;;;1.38;;
20411;SDS011;10365;52.578;8.138;2022-08-21T16:33:55;2.55;;;0.90;;